Caliente, Nevada Weather observations

Data are for observation ending at time listed.
 Day   Time    Ave.   Ave.  Ave.  Vector   Max.   Stn.    Total    Solar   Ave.  
  of    of     Air    Rel.  Wind   Wind    Wind   Baro.  Precip.   Rad.    Soil  
Year   Day     Temp.  Hum.  Speed  Dir.    Gust   Pres.                    Temp. 
2015   (PST)    F      %     mph   deg.    mph     mb.     in.     W/m2     F   
------------------------------------------------------------------------------
 185   19:00   79.2    44    1.1    26      3.3   865.0    0.00       8    88.8
 185   19:10   78.6    43    1.0    72      1.8   865.0    0.00       5    88.7
 185   19:20   78.0    43    0.1   160      1.3   865.1    0.00       1    88.5
 185   19:30   78.2    43    0.3   282      1.5   865.2    0.00       0    88.4
 185   19:40   77.5    43    1.1   160      2.0   865.3    0.00       0    88.2
 185   19:50   77.2    43    0.1   120      0.9   865.5    0.00       0    88.0
 185   20:00   77.5    42    0.5   284      1.7   865.6    0.00       0    87.8
 185   20:10   77.6    44    0.4   108      1.6   865.7    0.00       0    87.6
 185   20:20   77.1    41    0.8   151      1.3   865.9    0.00       0    87.5
 185   20:30   77.0    41    0.4     9      2.2   866.0    0.00       0    87.4
 185   20:40   77.4    40    0.6    80      2.5   866.1    0.00       0    87.2
 185   20:50   77.3    38    1.4    91      3.7   866.1    0.00       0    87.1
 185   21:00   77.0    41    0.5    10      2.0   866.2    0.00       0    86.9
 185   21:10   75.9    42    0.4   138      2.0   866.2    0.00       0    86.8
 185   21:20   74.9    44    0.2   138      1.0   866.3    0.00       0    86.6
 185   21:30   74.1    47    0.8    26      2.5   866.3    0.00       0    86.5
 185   21:40   73.7    47    1.0    85      2.1   866.3    0.00       0    86.3
 185   21:50   73.5    49    0.9    62      2.9   866.4    0.00       0    86.2
 185   22:00   72.8    50    0.5    76      4.5   866.4    0.00       0    86.0
 185   22:10   71.4    51    0.9   141      2.1   866.4    0.00       0    85.8
 185   22:20   71.0    53    0.2   302      1.8   866.4    0.00       0    85.6
 185   22:30   70.5    54    0.0   300      0.4   866.5    0.00       0    85.4
 185   22:40   70.1    54    1.1   125      1.8   866.5    0.00       0    85.3
 185   22:50   69.7    53    0.4    35      1.2   866.6    0.00       0    85.1
 185   23:00   69.5    55    1.3   101      4.8   866.7    0.00       0    85.0
 185   23:10   68.7    56    0.6   223      1.8   866.7    0.00       0    84.8
 185   23:20   68.4    57    0.1   309      1.3   866.7    0.00       0    84.6
 185   23:30   68.1    57    0.1   177      1.0   866.7    0.00       0    84.4
 185   23:40   67.7    56    0.1   181      0.9   866.8    0.00       0    84.2
 185   23:50   67.8    54    0.2   198      0.8   866.7    0.00       0    84.0
 186    0:00   67.6    57    0.1   269      1.1   866.8    0.00       0    83.9
 186    0:10   66.8    57    0.6    96      3.4   866.7    0.00       0    83.7
 186    0:20   66.4    55    0.0   191      1.1   866.7    0.00       1    83.5
 186    0:30   66.4    56    0.5   163      1.5   866.7    0.00       0    83.4
 186    0:40   66.1    54    0.4   213      1.5   866.8    0.00       0    83.2
 186    0:50   66.3    50    0.4   191      1.4   866.8    0.00       1    83.0
 186    1:00   66.4    51    0.0   201      0.6   866.8    0.00       1    82.9
 186    1:10   65.8    54    0.0     0      0.0   866.7    0.00       1    82.7
 186    1:20   65.3    53    0.9   174      2.0   866.6    0.00       0    82.5
 186    1:30   65.1    57    0.2   185      0.9   866.6    0.00       0    82.4
 186    1:40   64.1    59    0.9   150      2.3   866.7    0.00       0    82.2
 186    1:50   63.9    59    0.1    22      1.3   866.7    0.00       0    82.1
 186    2:00   63.8    63    0.6   124      1.4   866.7    0.00       0    81.9
 186    2:10   63.3    62    0.3   105      1.2   866.8    0.00       0    81.8
 186    2:20   63.1    63    0.5   356      1.5   866.9    0.00       0    81.6
 186    2:30   62.9    64    0.3    91      1.5   867.0    0.00       0    81.4
 186    2:40   62.5    66    1.4    91      2.7   867.0    0.00       0    81.2
 186    2:50   62.6    66    1.7    44      3.1   867.0    0.00       0    81.1
 186    3:00   62.5    66    0.6    96      1.5   867.0    0.00       0    80.9
 186    3:10   62.3    66    0.2    78      1.2   867.1    0.00       0    80.8
 186    3:20   62.0    67    0.8    90      2.3   867.1    0.00       0    80.6
 186    3:30   61.5    66    1.2   122      2.9   867.2    0.00       0    80.5
 186    3:40   61.5    65    0.5    16      3.1   867.3    0.00       0    80.3
 186    3:50   61.4    64    0.9    62      3.1   867.3    0.00       0    80.2
 186    4:00   61.3    65    0.5     4      1.8   867.3    0.00       0    80.0
 186    4:10   60.6    67    1.2   140      2.1   867.5    0.00       1    79.9
 186    4:20   60.4    67    0.5   121      1.8   867.5    0.00       2    79.8
 186    4:30   60.1    68    0.4   100      1.6   867.6    0.00       3    79.6
 186    4:40   59.9    68    1.7   107      3.1   867.7    0.00       6    79.5
 186    4:50   59.9    67    1.5   114      3.4   867.9    0.00       9    79.3
 186    5:00   60.3    66    0.8   134      1.9   868.0    0.00      14    79.2
 186    5:10   60.3    67    0.5    81      2.1   868.0    0.00      18    79.0
 186    5:20   60.9    65    2.1    26      2.9   868.1    0.00      25    78.9
 186    5:30   61.3    66    1.3    84      2.2   868.1    0.00      26    78.8
 186    5:40   61.9    66    0.5   191      1.6   868.2    0.00      32    78.7
 186    5:50   62.6    63    0.7   130      1.7   868.2    0.00      37    78.5
 186    6:00   63.6    60    0.8    40      2.4   868.2    0.00      37    78.4
 186    6:10   64.3    60    1.1    74      2.3   868.3    0.00      38    78.4
 186    6:20   65.0    59    1.2    93      2.8   868.3    0.00      67    78.3
 186    6:30   66.1    55    1.3     8      3.1   868.3    0.00      83    78.2
 186    6:40   67.1    52    1.3    10      3.1   868.3    0.00     168    78.2
 186    6:50   68.3    50    1.4    78      2.9   868.3    0.00     193    78.1
 186    7:00   68.9    50    0.4   200      1.3   868.4    0.00     200    78.1
 186    7:10   69.6    50    1.0   128      2.6   868.4    0.00     199    78.2
 186    7:20   70.2    46    0.9    96      2.8   868.3    0.00     154    78.3
 186    7:30   71.1    47    1.1    36      3.3   868.4    0.00     132    78.4
 186    7:40   71.3    46    1.1    52      3.9   868.4    0.00     120    78.5
 186    7:50   71.8    45    1.7    39      4.0   868.4    0.00      99    78.6
 186    8:00   72.1    44    1.4    57      5.5   868.5    0.00      95    78.7
 186    8:10   72.0    46    0.6    93      2.0   868.4    0.00      93    78.8
 186    8:20   71.3    51    0.5   169      1.1   868.5    0.00     109    78.9
 186    8:30   71.2    51    0.8   152      2.1   868.5    0.00     131    79.0
 186    8:40   71.6    48    0.4   139      1.8   868.5    0.00     137    79.1
 186    8:50   72.0    49    0.5   148      1.2   868.4    0.00     114    79.2
 186    9:00   72.2    48    1.4   231      6.2   868.4    0.00      95    79.4
 186    9:10   71.3    53    1.3   127      2.0   868.4    0.00     118    79.5
 186    9:20   72.2    50    0.5   173      1.1   868.4    0.00     190    79.6
 186    9:30   73.8    49    0.4   206      1.5   868.4    0.00     206    79.7
 186    9:40   74.0    49    0.9   149      1.6   868.4    0.00     163    79.8
 186    9:50   74.4    47    0.8   203      1.5   868.5    0.00     219    80.0
 186   10:00   75.2    45    0.8   131      1.4   868.5    0.00     322    80.1
 186   10:10   77.6    39    0.9    42      2.0   868.5    0.00     463    80.3
 186   10:20   80.1    34    1.0    36      3.1   868.4    0.00     561    80.5
 186   10:30   81.4    31    1.2    35      3.8   868.2    0.00     677    80.7
 186   10:40   83.2    28    1.2   350      3.8   868.0    0.00     772    81.0
 186   10:50   85.1    27    1.0     4      3.4   867.8    0.00     778    81.3
 186   11:00   86.7    25    1.0   269      4.2   867.7    0.00     806    81.6
 186   11:10   87.5    22    1.2   275      5.8   867.5    0.00     884    81.9
 186   11:20   87.6    22    1.1   221      6.4   867.4    0.00     751    82.4
 186   11:30   88.5    21    2.5   260      6.2   867.2    0.00     432    82.9
 186   11:40   88.3    21    3.7   262      7.1   867.0    0.00     498    83.4
 186   11:50   89.3    20    3.9   252      9.6   866.9    0.00     831    83.7
 186   12:00   89.3    21    1.8   205      6.5   866.8    0.00     397    84.1
 186   12:10   89.8    21    2.9   248      8.1   866.7    0.00     549    84.5
 186   12:20   89.8    21    3.9   242      9.6   866.6    0.00     774    84.9
 186   12:30   89.1    21    5.2   246     13.2   866.5    0.00     201    85.4
 186   12:40   88.8    21    6.5   248     12.2   866.3    0.00     715    85.8
 186   12:50   90.9    20    5.3   251     15.0   866.2    0.00     844    86.3
 186   13:00   90.2    20    6.7   246     14.1   866.0    0.00     464    86.9
 186   13:10   88.6    21    4.8   244     12.1   865.9    0.00     226    87.5
 186   13:20   87.9    22    6.8   247     12.5   865.8    0.00     280    88.0
 186   13:30   87.9    21    7.8   247     12.3   865.7    0.00     300    88.2
 186   13:40   88.4    21    7.9   246     14.0   865.6    0.00     469    88.4
 186   13:50   88.1    21    4.9   248     11.2   865.6    0.00     288    88.7
 186   14:00   88.5    21    2.7   209      9.9   865.6    0.00     269    89.0
 186   14:10   88.6    21    2.8   231      6.7   865.6    0.00     215    89.2
 186   14:20   88.3    21    4.4   243     11.0   865.5    0.00     202    89.3
 186   14:30   87.7    22    6.8   247     15.4   865.5    0.00     134    89.4
 186   14:40   83.1    29   17.8   256     29.0   866.0    0.00      73    89.4
 186   14:50   76.1    44   12.5   248     25.8   866.1    0.00      34    89.3
 186   15:00   72.6    48    9.3   246     21.9   866.7    0.03      23    88.8
 186   15:10   72.6    44    5.5   156     23.9   866.7    0.02      20    87.8
 186   15:20   72.3    48    5.6   161     16.1   867.1    0.01      22    86.7
 186   15:30   73.0    43    6.2   163     19.4   867.4    0.00      23    85.8
 186   15:40   73.3    42    3.6   146     12.8   867.5    0.00      28    85.2
 186   15:50   73.3    42    9.6   133     21.4   867.2    0.00      51    84.5
 186   16:00   75.3    36    7.9   118     20.1   866.8    0.00      95    84.0
 186   16:10   76.2    35    6.3   125     12.6   866.6    0.00      94    83.4
 186   16:20   77.5    32    3.7   111     13.4   866.6    0.00     105    83.0
 186   16:30   75.6    41    5.9   256     11.0   866.6    0.00     140    82.7
 186   16:40   74.0    47    3.8   246      8.0   866.4    0.00     221    82.6
 186   16:50   74.9    46    4.1   257      7.7   866.3    0.00     258    82.5
 186   17:00   75.9    44    4.3   250      7.7   866.3    0.00     284    82.5
 186   17:10   77.2    40    2.4   258      5.5   866.3    0.00     310    82.6
 186   17:20   78.5    40    1.9   290      3.7   866.2    0.00     305    82.8
 186   17:30   78.8    39    2.2   253      3.9   866.0    0.00     217    83.1
 186   17:40   78.3    40    3.3   254      4.2   866.1    0.00     160    83.5
 186   17:50   78.1    41    2.9   255      4.4   866.1    0.00     124    83.7
 186   18:00   78.1    42    2.5   247      4.6   866.0    0.00     108    83.9
 186   18:10   77.8    43    2.1   242      3.8   865.9    0.00      50    84.0
 186   18:20   77.0    48    1.5   262      4.0   865.9    0.00      40    84.0
 186   18:30   76.1    49    0.3   183      1.5   865.9    0.00      77    84.0
 186   18:40   76.6    51    1.2   309      3.1   866.0    0.00      33    84.0
 186   18:50   75.2    55    0.2   191      1.2   866.2    0.00      20    83.9

Return to Caliente, Nevada graphs page.


Western Regional Climate Center,wrcc@dri.edu